createdAt,value
2018-06-24T00:00:16.306Z,2.50
2018-06-24T00:02:59.913Z,2.57
2018-06-24T00:05:31.738Z,3.07
2018-06-24T00:08:02.710Z,2.80
2018-06-24T00:10:33.622Z,3.30
2018-06-24T00:13:04.436Z,3.60
2018-06-24T00:15:35.013Z,3.23
2018-06-24T00:18:05.945Z,2.73
2018-06-24T00:20:36.740Z,3.20
2018-06-24T00:23:08.312Z,3.10
2018-06-24T00:25:38.898Z,3.27
2018-06-24T00:28:09.568Z,3.00
2018-06-24T00:30:39.975Z,3.07
2018-06-24T00:33:11.260Z,3.07
2018-06-24T00:35:41.789Z,3.27
2018-06-24T00:38:12.437Z,3.27
2018-06-24T00:40:43.047Z,3.13
2018-06-24T00:43:13.855Z,3.53
2018-06-24T00:45:44.933Z,2.97
2018-06-24T00:48:15.443Z,3.07
2018-06-24T00:50:45.944Z,3.10
2018-06-24T00:53:16.450Z,3.30
2018-06-24T00:55:47.037Z,3.40
2018-06-24T00:58:17.434Z,3.30
2018-06-24T01:00:48.061Z,3.37
2018-06-24T01:03:19.024Z,3.33
2018-06-24T01:05:49.692Z,3.30
2018-06-24T01:08:20.694Z,3.13
2018-06-24T01:10:51.374Z,3.37
2018-06-24T01:13:23.240Z,3.30
2018-06-24T01:15:53.688Z,3.33
2018-06-24T01:18:26.547Z,2.60
2018-06-24T01:20:57.806Z,2.87
2018-06-24T01:23:28.435Z,2.93
2018-06-24T01:25:58.729Z,3.03
2018-06-24T01:28:29.300Z,2.53
2018-06-24T01:31:00.097Z,3.00
2018-06-24T01:33:30.278Z,3.43
2018-06-24T01:36:01.166Z,3.60
2018-06-24T01:38:31.627Z,3.50
2018-06-24T01:41:02.079Z,3.40
2018-06-24T01:43:32.240Z,3.77
2018-06-24T01:46:03.154Z,3.30
2018-06-24T01:48:33.775Z,3.57
2018-06-24T01:51:04.874Z,3.60
2018-06-24T01:53:35.186Z,4.10
2018-06-24T01:56:06.052Z,3.80
2018-06-24T01:58:36.615Z,3.17
2018-06-24T02:01:07.466Z,3.37
2018-06-24T02:03:37.853Z,3.80
2018-06-24T02:06:09.267Z,3.47
2018-06-24T02:08:39.878Z,3.80
2018-06-24T02:11:10.186Z,3.50
2018-06-24T02:13:40.530Z,3.50
2018-06-24T02:16:11.034Z,3.60
2018-06-24T02:18:41.379Z,3.40
2018-06-24T02:21:11.798Z,3.03
2018-06-24T02:23:42.886Z,3.87
2018-06-24T02:26:13.307Z,3.40
2018-06-24T02:28:43.798Z,3.90
2018-06-24T02:31:14.118Z,3.90
2018-06-24T02:33:44.671Z,3.50
2018-06-24T02:36:15.490Z,4.20
2018-06-24T02:38:46.048Z,4.23
2018-06-24T02:41:16.544Z,4.10
2018-06-24T02:43:46.860Z,3.70
2018-06-24T02:46:17.393Z,3.17
2018-06-24T02:48:47.706Z,3.80
2018-06-24T02:51:18.100Z,4.57
2018-06-24T02:53:48.924Z,4.63
2018-06-24T02:56:19.603Z,4.23
2018-06-24T02:58:50.008Z,4.30
2018-06-24T03:01:20.518Z,4.13
2018-06-24T03:03:50.839Z,5.23
2018-06-24T03:06:21.614Z,4.47
2018-06-24T03:08:52.317Z,4.03
2018-06-24T03:11:23.635Z,4.90
2018-06-24T03:13:54.230Z,4.33
2018-06-24T03:16:24.639Z,4.20
2018-06-24T03:18:55.624Z,5.17
2018-06-24T03:21:26.025Z,4.03
2018-06-24T03:23:56.284Z,4.27
2018-06-24T03:26:27.498Z,5.10
2018-06-24T03:28:58.326Z,4.33
2018-06-24T03:31:28.879Z,5.17
2018-06-24T03:33:59.486Z,4.50
2018-06-24T03:36:29.958Z,4.07
2018-06-24T03:39:00.450Z,4.73
2018-06-24T03:41:31.019Z,4.20
2018-06-24T03:44:01.830Z,4.20
2018-06-24T03:46:32.754Z,4.40
2018-06-24T03:49:03.281Z,4.10
2018-06-24T03:51:34.128Z,4.73
2018-06-24T03:54:04.966Z,4.70
2018-06-24T03:56:35.342Z,5.20
2018-06-24T03:59:05.698Z,4.10
2018-06-24T04:01:37.015Z,4.33
2018-06-24T04:04:07.544Z,4.70
2018-06-24T04:06:37.891Z,4.37
2018-06-24T04:09:08.950Z,5.33
2018-06-24T04:11:39.732Z,3.70
2018-06-24T04:14:10.085Z,4.37
2018-06-24T04:16:40.383Z,4.70
2018-06-24T04:19:10.842Z,4.20
2018-06-24T04:21:41.561Z,3.63
2018-06-24T04:24:11.767Z,4.50
2018-06-24T04:26:42.524Z,4.00
2018-06-24T04:29:12.823Z,4.57
2018-06-24T04:31:43.817Z,5.00
2018-06-24T04:34:14.426Z,4.47
2018-06-24T04:36:45.533Z,4.43
2018-06-24T04:39:15.942Z,4.37
2018-06-24T04:41:46.094Z,4.10
2018-06-24T04:44:16.570Z,4.00
2018-06-24T04:46:47.606Z,4.20
2018-06-24T04:49:18.226Z,4.47
2018-06-24T04:51:48.654Z,4.73
2018-06-24T04:54:19.675Z,4.40
2018-06-24T04:56:50.317Z,4.47
2018-06-24T04:59:20.796Z,4.50
2018-06-24T05:01:51.890Z,4.00
2018-06-24T05:04:22.722Z,4.00
2018-06-24T05:06:53.266Z,4.80
2018-06-24T05:09:24.026Z,3.87
2018-06-24T05:11:55.137Z,3.93
2018-06-24T05:14:26.333Z,4.07
2018-06-24T05:16:56.870Z,4.10
2018-06-24T05:19:27.556Z,4.40
2018-06-24T05:21:58.594Z,4.40
2018-06-24T05:24:29.676Z,3.90
2018-06-24T05:27:00.094Z,3.87
2018-06-24T05:29:30.814Z,4.40
2018-06-24T05:32:02.911Z,4.23
2018-06-24T05:34:33.318Z,4.70
2018-06-24T05:37:03.659Z,5.20
2018-06-24T05:39:34.230Z,4.40
2018-06-24T05:42:05.639Z,4.70
2018-06-24T05:44:36.610Z,4.50
2018-06-24T05:47:07.363Z,4.80
2018-06-24T05:49:38.218Z,4.50
2018-06-24T05:52:08.960Z,3.73
2018-06-24T05:54:39.549Z,4.60
2018-06-24T05:57:10.495Z,4.77
2018-06-24T05:59:41.070Z,4.80
2018-06-24T06:02:11.845Z,4.17
2018-06-24T06:04:42.542Z,4.27
2018-06-24T06:07:13.551Z,4.90
2018-06-24T06:09:44.205Z,5.00
2018-06-24T06:12:14.861Z,4.50
2018-06-24T06:14:45.757Z,4.50
2018-06-24T06:17:16.436Z,4.87
2018-06-24T06:19:46.578Z,5.30
2018-06-24T06:22:17.106Z,4.90
2018-06-24T06:24:47.606Z,4.67
2018-06-24T06:27:18.086Z,5.30
2018-06-24T06:29:48.970Z,5.33
2018-06-24T06:32:19.134Z,5.20
2018-06-24T06:34:50.013Z,5.10
2018-06-24T06:37:20.540Z,5.73
2018-06-24T06:39:51.006Z,4.97
2018-06-24T06:42:21.648Z,4.10
2018-06-24T06:44:52.315Z,4.70
2018-06-24T06:47:22.911Z,4.80
2018-06-24T06:49:53.442Z,4.60
2018-06-24T06:52:24.039Z,4.63
2018-06-24T06:54:56.901Z,4.80
2018-06-24T06:57:27.532Z,5.13
2018-06-24T06:59:58.350Z,4.13
2018-06-24T07:02:28.850Z,4.30
2018-06-24T07:04:59.469Z,4.60
2018-06-24T07:07:30.203Z,4.50
2018-06-24T07:10:02.094Z,5.23
2018-06-24T07:12:32.586Z,4.73
2018-06-24T07:15:03.121Z,4.57
2018-06-24T07:17:33.699Z,4.80
2018-06-24T07:20:05.062Z,5.40
2018-06-24T07:22:35.915Z,4.93
2018-06-24T07:25:06.582Z,5.17
2018-06-24T07:27:37.353Z,5.00
2018-06-24T07:30:08.427Z,5.20
2018-06-24T07:32:38.942Z,4.13
2018-06-24T07:35:10.259Z,5.00
2018-06-24T07:37:41.415Z,5.47
2018-06-24T07:40:12.554Z,4.57
2018-06-24T07:42:44.243Z,4.40
2018-06-24T07:45:15.720Z,4.47
2018-06-24T07:47:50.612Z,4.00
2018-06-24T07:50:22.836Z,5.30
2018-06-24T07:52:54.155Z,5.93
2018-06-24T07:55:27.803Z,4.50
2018-06-24T07:57:58.768Z,5.23
2018-06-24T08:00:29.618Z,4.53
2018-06-24T08:03:00.882Z,4.67
2018-06-24T08:05:31.617Z,4.50
2018-06-24T08:08:03.197Z,4.50
2018-06-24T08:10:34.345Z,4.87
2018-06-24T08:13:05.923Z,4.33
2018-06-24T08:15:36.901Z,4.20
2018-06-24T08:18:07.906Z,4.87
2018-06-24T08:20:40.818Z,4.90
2018-06-24T08:23:11.664Z,4.63
2018-06-24T08:25:43.321Z,4.33
2018-06-24T08:28:14.231Z,4.10
2018-06-24T08:30:44.970Z,4.20
2018-06-24T08:33:16.305Z,4.07
2018-06-24T08:35:47.074Z,3.43
2018-06-24T08:38:17.937Z,3.57
2018-06-24T08:40:48.555Z,4.50
2018-06-24T08:43:18.939Z,4.53
2018-06-24T08:45:49.851Z,5.60
2018-06-24T08:48:20.404Z,4.97
2018-06-24T08:50:50.842Z,4.00
2018-06-24T08:53:21.110Z,4.10
2018-06-24T08:55:51.950Z,4.20
2018-06-24T08:58:22.785Z,4.00
2018-06-24T09:00:53.661Z,3.90
2018-06-24T09:03:24.042Z,4.10
2018-06-24T09:05:54.714Z,4.53
2018-06-24T09:08:25.131Z,4.50
2018-06-24T09:10:55.955Z,4.37
2018-06-24T09:13:26.642Z,4.60
2018-06-24T09:15:57.723Z,4.93
2018-06-24T09:18:28.071Z,4.83
2018-06-24T09:20:58.367Z,4.23
2018-06-24T09:23:29.134Z,4.40
2018-06-24T09:26:00.091Z,5.27
2018-06-24T09:28:30.751Z,5.37
2018-06-24T09:31:01.643Z,3.90
2018-06-24T09:33:31.794Z,6.27
2018-06-24T09:36:03.311Z,4.80
2018-06-24T09:38:33.965Z,4.97
2018-06-24T09:41:06.278Z,5.10
2018-06-24T09:43:36.992Z,4.50
2018-06-24T09:46:07.830Z,4.53
2018-06-24T09:48:39.137Z,4.97
2018-06-24T09:51:10.304Z,5.27
2018-06-24T09:53:40.921Z,5.43
2018-06-24T09:56:11.775Z,5.07
2018-06-24T09:58:43.078Z,4.90
2018-06-24T10:01:13.767Z,4.60
2018-06-24T10:03:44.511Z,5.43
2018-06-24T10:06:15.377Z,4.37
2018-06-24T10:08:45.961Z,5.13
2018-06-24T10:11:16.875Z,4.37
2018-06-24T10:13:47.120Z,5.30
2018-06-24T10:16:17.113Z,5.60
2018-06-24T10:18:47.568Z,5.97
2018-06-24T10:21:18.480Z,5.53
2018-06-24T10:23:49.131Z,5.30
2018-06-24T10:26:19.161Z,5.80
2018-06-24T10:28:50.103Z,4.90
2018-06-24T10:31:20.759Z,5.77
2018-06-24T10:33:51.218Z,7.07
2018-06-24T10:36:21.751Z,6.50
2018-06-24T10:38:52.174Z,6.87
2018-06-24T10:41:22.620Z,5.50
2018-06-24T10:43:53.037Z,6.07
2018-06-24T10:46:23.643Z,6.30
2018-06-24T10:48:54.218Z,6.37
2018-06-24T10:51:25.361Z,6.23
2018-06-24T10:53:55.886Z,6.10
2018-06-24T10:56:26.588Z,6.50
2018-06-24T10:58:56.971Z,5.00
2018-06-24T11:01:27.265Z,5.53
2018-06-24T11:03:58.306Z,7.70
2018-06-24T11:06:28.788Z,6.50
2018-06-24T11:08:59.222Z,6.40
2018-06-24T11:11:29.799Z,7.50
2018-06-24T11:14:00.171Z,6.00
2018-06-24T11:16:31.217Z,7.50
2018-06-24T11:19:01.801Z,6.23
2018-06-24T11:21:32.610Z,5.80
2018-06-24T11:24:03.400Z,5.90
2018-06-24T11:26:34.023Z,5.73
2018-06-24T11:29:04.117Z,5.47
2018-06-24T11:31:37.329Z,5.67
2018-06-24T11:34:08.061Z,6.73
2018-06-24T11:36:38.784Z,5.17
2018-06-24T11:39:11.027Z,5.97
2018-06-24T11:41:41.606Z,5.00
2018-06-24T11:44:11.970Z,6.10
2018-06-24T11:46:42.634Z,5.40
2018-06-24T11:49:13.534Z,5.70
2018-06-24T11:51:43.897Z,5.10
2018-06-24T11:54:14.328Z,5.53
2018-06-24T11:56:45.036Z,4.97
2018-06-24T11:59:15.924Z,5.10
2018-06-24T12:01:46.519Z,4.60
2018-06-24T12:04:17.180Z,4.60
2018-06-24T12:06:48.012Z,3.47
2018-06-24T12:09:18.606Z,4.60
2018-06-24T12:11:49.131Z,4.07
2018-06-24T12:14:19.663Z,4.00
2018-06-24T12:16:50.644Z,3.57
2018-06-24T12:19:21.288Z,4.47
2018-06-24T12:21:51.754Z,3.63
2018-06-24T12:24:22.413Z,3.67
2018-06-24T12:26:52.674Z,3.30
2018-06-24T12:29:23.439Z,3.67
2018-06-24T12:31:54.034Z,5.70
2018-06-24T12:34:24.841Z,3.77
2018-06-24T12:36:55.178Z,3.73
2018-06-24T12:39:25.399Z,4.77
2018-06-24T12:41:55.805Z,3.53
2018-06-24T12:44:26.473Z,3.00
2018-06-24T12:46:57.140Z,2.93
2018-06-24T12:49:28.206Z,2.30
2018-06-24T12:51:59.073Z,2.50
2018-06-24T12:54:29.930Z,3.23
2018-06-24T12:57:00.408Z,2.87
2018-06-24T12:59:31.132Z,3.20
2018-06-24T13:02:01.662Z,4.03
2018-06-24T13:04:32.179Z,2.70
2018-06-24T13:07:02.771Z,3.00
2018-06-24T13:09:33.671Z,3.00
2018-06-24T13:12:04.362Z,3.50
2018-06-24T13:14:34.697Z,2.97
2018-06-24T13:17:05.788Z,3.00
2018-06-24T13:19:36.650Z,4.07
2018-06-24T13:22:07.461Z,3.43
2018-06-24T13:24:38.481Z,3.50
2018-06-24T13:27:09.098Z,3.50
2018-06-24T13:29:39.621Z,3.23
2018-06-24T13:32:10.051Z,2.70
2018-06-24T13:34:40.917Z,3.10
2018-06-24T13:37:11.366Z,3.10
2018-06-24T13:39:41.734Z,2.80
2018-06-24T13:42:12.501Z,2.90
2018-06-24T13:44:45.314Z,3.00
2018-06-24T13:47:16.091Z,3.60
2018-06-24T13:49:46.804Z,4.50
2018-06-24T13:52:17.924Z,4.60
2018-06-24T13:54:48.218Z,5.30
2018-06-24T13:57:18.934Z,5.40
2018-06-24T13:59:49.655Z,6.10
2018-06-24T14:02:21.829Z,6.00
2018-06-24T14:04:53.229Z,6.23
2018-06-24T14:07:23.886Z,5.77
2018-06-24T14:09:54.568Z,6.90
2018-06-24T14:12:26.404Z,7.07
2018-06-24T14:14:56.950Z,7.00
2018-06-24T14:17:27.929Z,5.43
2018-06-24T14:19:59.232Z,5.83
2018-06-24T14:22:29.922Z,5.40
2018-06-24T14:25:00.579Z,5.80
2018-06-24T14:27:31.516Z,5.60
2018-06-24T14:30:02.097Z,5.10
2018-06-24T14:32:31.995Z,4.67
2018-06-24T14:35:02.508Z,5.00
2018-06-24T14:37:33.334Z,5.87
2018-06-24T14:40:03.911Z,5.60
2018-06-24T14:42:34.339Z,5.60
2018-06-24T14:45:05.228Z,5.87
2018-06-24T14:47:35.590Z,6.00
2018-06-24T14:50:06.463Z,6.80
2018-06-24T14:52:36.903Z,6.00
2018-06-24T14:55:07.390Z,6.37
2018-06-24T14:57:37.922Z,7.67
2018-06-24T15:00:09.912Z,5.33
2018-06-24T15:02:41.526Z,6.70
2018-06-24T15:05:13.082Z,6.60
2018-06-24T15:07:43.965Z,6.70
2018-06-24T15:10:14.794Z,6.80
2018-06-24T15:12:45.358Z,7.63
2018-06-24T15:15:16.210Z,6.80
2018-06-24T15:17:47.020Z,7.80
2018-06-24T15:20:19.415Z,7.63
2018-06-24T15:22:49.348Z,7.00
2018-06-24T15:25:20.054Z,6.20
2018-06-24T15:27:50.634Z,6.10
2018-06-24T15:30:21.134Z,6.60
2018-06-24T15:32:51.490Z,6.40
2018-06-24T15:35:22.042Z,5.33
2018-06-24T15:37:52.747Z,5.70
2018-06-24T15:40:25.117Z,6.43
2018-06-24T15:42:55.747Z,5.80
2018-06-24T15:45:34.893Z,6.60
2018-06-24T15:48:08.462Z,5.97
2018-06-24T15:50:39.128Z,5.60
2018-06-24T15:53:10.548Z,5.70
2018-06-24T15:55:42.050Z,6.47
2018-06-24T15:58:12.755Z,5.73
2018-06-24T16:00:45.915Z,6.00
2018-06-24T16:03:16.574Z,6.27
2018-06-24T16:05:46.977Z,5.63
2018-06-24T16:08:17.117Z,6.60
2018-06-24T16:10:48.006Z,6.60
2018-06-24T16:13:18.590Z,11.90
2018-06-24T16:15:49.263Z,10.60
2018-06-24T16:18:20.047Z,7.20
2018-06-24T16:20:50.561Z,7.57
2018-06-24T16:23:21.336Z,7.60
2018-06-24T16:25:52.400Z,7.47
2018-06-24T16:28:22.901Z,5.63
2018-06-24T16:30:53.394Z,5.33
2018-06-24T16:33:29.158Z,5.17
2018-06-24T16:36:06.264Z,4.40
2018-06-24T16:38:36.785Z,5.17
2018-06-24T16:41:07.502Z,5.00
2018-06-24T16:43:38.175Z,5.60
2018-06-24T16:46:08.807Z,7.40
2018-06-24T16:48:39.223Z,5.60
2018-06-24T16:51:12.001Z,5.73
2018-06-24T16:53:42.940Z,5.80
2018-06-24T16:56:15.110Z,4.97
2018-06-24T16:58:46.098Z,6.30
2018-06-24T17:01:18.595Z,9.10
2018-06-24T17:03:50.353Z,7.20
2018-06-24T17:06:22.150Z,7.50
2018-06-24T17:08:53.167Z,5.33
2018-06-24T17:11:23.871Z,6.50
2018-06-24T17:13:54.946Z,6.00
2018-06-24T17:16:25.587Z,8.20
2018-06-24T17:18:56.411Z,5.43
2018-06-24T17:21:27.938Z,5.20
2018-06-24T17:23:59.107Z,4.60
2018-06-24T17:26:31.438Z,4.20
2018-06-24T17:29:02.397Z,4.27
2018-06-24T17:31:32.929Z,3.80
2018-06-24T17:34:12.722Z,4.30
2018-06-24T17:36:43.730Z,3.90
2018-06-24T17:39:14.216Z,3.90
2018-06-24T17:41:46.300Z,4.80
2018-06-24T17:44:17.649Z,5.80
2018-06-24T17:46:48.824Z,4.20
2018-06-24T17:49:19.389Z,4.50
2018-06-24T17:51:50.304Z,4.00
2018-06-24T17:54:21.478Z,3.63
2018-06-24T17:56:51.919Z,3.33
2018-06-24T17:59:22.505Z,3.20
2018-06-24T18:01:53.442Z,2.37
2018-06-24T18:04:23.380Z,2.37
2018-06-24T18:06:53.907Z,2.47
2018-06-24T18:09:25.007Z,3.07
2018-06-24T18:11:55.883Z,2.30
2018-06-24T18:14:26.529Z,2.43
2018-06-24T18:16:57.611Z,2.70
2018-06-24T18:19:28.513Z,2.40
2018-06-24T18:21:59.202Z,2.30
2018-06-24T18:24:29.486Z,2.13
2018-06-24T18:27:00.234Z,2.20
2018-06-24T18:29:31.018Z,3.60
2018-06-24T18:32:02.022Z,3.20
2018-06-24T18:34:32.690Z,3.00
2018-06-24T18:37:03.268Z,2.60
2018-06-24T18:39:33.858Z,2.97
2018-06-24T18:42:04.538Z,2.50
2018-06-24T18:44:35.180Z,3.03
2018-06-24T18:47:05.886Z,2.33
2018-06-24T18:49:36.834Z,2.00
2018-06-24T18:52:07.542Z,2.40
2018-06-24T18:54:37.898Z,2.30
2018-06-24T18:57:08.974Z,1.90
2018-06-24T18:59:39.846Z,2.43
2018-06-24T19:02:10.731Z,2.00
2018-06-24T19:04:41.691Z,2.00
2018-06-24T19:07:12.530Z,2.57
2018-06-24T19:09:43.197Z,2.50
2018-06-24T19:12:14.114Z,2.47
2018-06-24T19:14:45.537Z,2.60
2018-06-24T19:17:15.967Z,2.50
2018-06-24T19:19:46.628Z,2.40
2018-06-24T19:22:17.226Z,2.87
2018-06-24T19:24:47.543Z,2.63
2018-06-24T19:27:18.255Z,2.77
2018-06-24T19:29:48.978Z,3.10
2018-06-24T19:32:19.483Z,3.07
2018-06-24T19:34:50.041Z,3.47
2018-06-24T19:37:22.262Z,3.50
2018-06-24T19:39:52.826Z,3.27
2018-06-24T19:42:22.768Z,4.10
2018-06-24T19:44:53.138Z,4.90
2018-06-24T19:47:24.389Z,3.30
2018-06-24T19:49:54.771Z,4.30
2018-06-24T19:52:25.593Z,4.27
2018-06-24T19:54:56.078Z,3.33
2018-06-24T19:57:26.924Z,4.27
2018-06-24T19:59:57.835Z,3.30
2018-06-24T20:02:28.605Z,3.10
2018-06-24T20:04:59.180Z,3.47
2018-06-24T20:07:29.710Z,3.33
2018-06-24T20:10:00.674Z,3.77
2018-06-24T20:12:31.357Z,3.33
2018-06-24T20:15:02.475Z,3.43
2018-06-24T20:17:33.111Z,2.90
2018-06-24T20:20:03.777Z,3.23
2018-06-24T20:22:34.646Z,3.70
2018-06-24T20:25:05.214Z,3.60
2018-06-24T20:27:36.396Z,3.53
2018-06-24T20:30:08.170Z,3.03
2018-06-24T20:32:38.667Z,3.50
2018-06-24T20:35:09.186Z,3.37
2018-06-24T20:37:39.839Z,3.07
2018-06-24T20:40:10.977Z,3.40
2018-06-24T20:42:41.603Z,3.43
2018-06-24T20:45:12.082Z,3.63
2018-06-24T20:47:42.619Z,2.80
2018-06-24T20:50:12.707Z,3.00
2018-06-24T20:52:43.152Z,3.23
2018-06-24T20:55:13.643Z,3.50
2018-06-24T20:57:44.078Z,3.13
2018-06-24T21:00:14.803Z,3.10
2018-06-24T21:02:45.748Z,3.23
2018-06-24T21:05:16.154Z,3.30
2018-06-24T21:07:46.738Z,3.30
2018-06-24T21:10:17.326Z,3.10
2018-06-24T21:12:48.125Z,2.70
2018-06-24T21:15:18.958Z,3.07
2018-06-24T21:17:49.815Z,3.83
2018-06-24T21:20:20.606Z,3.20
2018-06-24T21:22:51.250Z,3.40
2018-06-24T21:25:22.098Z,3.60
2018-06-24T21:27:52.646Z,3.73
2018-06-24T21:30:23.195Z,3.90
2018-06-24T21:32:54.215Z,3.50
2018-06-24T21:35:24.914Z,3.50
2018-06-24T21:37:55.787Z,3.10
2018-06-24T21:40:26.769Z,3.67
2018-06-24T21:42:57.927Z,3.10
2018-06-24T21:45:28.508Z,4.13
2018-06-24T21:47:59.486Z,4.53
2018-06-24T21:50:30.034Z,3.63
2018-06-24T21:53:00.507Z,3.93
2018-06-24T21:55:30.973Z,3.50
2018-06-24T21:58:01.377Z,3.37
2018-06-24T22:00:32.645Z,3.80
2018-06-24T22:03:03.308Z,3.87
2018-06-24T22:05:34.259Z,4.20
2018-06-24T22:08:06.666Z,3.60
2018-06-24T22:10:37.558Z,4.43
2018-06-24T22:13:08.794Z,3.83
2018-06-24T22:15:39.201Z,3.87
2018-06-24T22:18:09.846Z,4.07
2018-06-24T22:20:41.961Z,4.37
2018-06-24T22:23:12.419Z,4.00
2018-06-24T22:25:43.098Z,4.53
2018-06-24T22:28:13.882Z,3.87
2018-06-24T22:30:44.626Z,4.40
2018-06-24T22:33:15.524Z,4.63
2018-06-24T22:35:46.162Z,4.73
2018-06-24T22:38:16.984Z,4.90
2018-06-24T22:40:47.962Z,5.20
2018-06-24T22:43:21.304Z,5.30
2018-06-24T22:45:52.924Z,4.47
2018-06-24T22:48:23.788Z,4.40
2018-06-24T22:50:54.229Z,4.93
2018-06-24T22:53:24.831Z,4.40
2018-06-24T22:55:55.167Z,4.30
2018-06-24T22:58:25.872Z,5.00
2018-06-24T23:00:57.018Z,4.73
2018-06-24T23:03:27.608Z,4.40
2018-06-24T23:05:58.457Z,4.67
2018-06-24T23:08:29.074Z,4.37
2018-06-24T23:10:59.618Z,4.07
2018-06-24T23:13:30.482Z,4.63
2018-06-24T23:16:01.080Z,4.43
2018-06-24T23:18:32.884Z,4.07
2018-06-24T23:21:03.598Z,3.87
2018-06-24T23:23:34.323Z,4.53
2018-06-24T23:26:04.930Z,4.73
2018-06-24T23:28:35.921Z,4.57
2018-06-24T23:31:06.369Z,3.70
2018-06-24T23:33:36.847Z,4.07
2018-06-24T23:36:07.369Z,3.57
2018-06-24T23:38:40.327Z,3.93
2018-06-24T23:41:10.715Z,3.93
2018-06-24T23:43:41.253Z,4.10
2018-06-24T23:46:12.437Z,4.30
2018-06-24T23:48:43.321Z,3.30
2018-06-24T23:51:14.118Z,3.80
2018-06-24T23:53:44.426Z,3.60
2018-06-24T23:56:14.889Z,4.13
2018-06-24T23:58:45.455Z,3.20
